A- A+ FrançaisEnglishEspañol中国

Services sur Internet Soldes sur Internet Des idées de cadeaux Météo Météo aéro

La météo à : Autours de vous Tarbes-Lourdes-PyrénéesLille-Marcq-En-Baroeul Lille-Lesquin Paris-Charles-De-Gaulle

manche à air

La météo aéronautique pour les pilotes, la préparation du vol avec les METAR (METeorological Aerodrome Report, message d'observation des conditions météorologiques pour l'aviation) et Les TAF (Terminal Aerodrome Forecast : message de prévision à court terme des conditions météorologiques pour l'aviation). Et les autres ressources comme les VAC (Visual Approch Chart) et les NOTAM (Notice To Airman) pour préprer les vols.

Aéroport Akure (Nigéria) / OACI DNAK/ IATA AKR

L'altitude de l'aéroport Akure est de 335 m = 1099 ft. Il est situé à proximité de Akure (Nigéria). La météo générale à 5 jours est disponible pour Ondo situé à 54.1 km.

METAR de l'aéroport Akure - DNAK

DNAK 241600Z 00000KT 9999 BKN011 26/23 Q1012

Décodage du METAR de l'aéroport Akure (NG)

METAR émis par DNAK le mardi 24 septembre 2019 à 16:00 heure TU. Attention ce METAR est obsolète car il a été émis il y a 7 heure et 48 minutes.

La visibilité est de supérieure à 10 km = supérieure à 6.2 sm.

La température est de 26°C = 79 °F et le point rosée est de 23°C = 73 °F . Ce qui correspond à 84% d'humidité relative.

Le QNH est de 1012 hPa = 29.88 inHg

Vent de 0 kt = 0 km/h, orienté à 0°.

Nuages : Couverture nuageuse fragmentée à 1100 ft = 340 mètres.

TAF de l'aéroport Akure - DNAK

DNAK 290500Z 2906/3012 VRB02KT 9999 SCT009 TEMPO 2906/2907 5000 BR TEMPO 2907/2910 5000 -TSRA BKN008 FEW018CB BECMG 2910/2912 26010KT BKN013 FEW020CB BECMG 2916/2918 VRB02KT SCT008

DNAK 290500Z 2906/3012 VRB02KT 9999 nuages épars à 009 temporairement 2906/2907 5000 brume temporairement 2907/2910 5000 faible TSRA couverture nuageuse fragmentée à 008 quelques nuages à 018CB devenant 2910/2912 26010KT couverture nuageuse fragmentée à 013 quelques nuages à 020CB devenant 2916/2918 VRB02KT nuages épars à 008

Aéroport à proximité de Akure

Météo générale à 5 jours à Ondo (54.1 km)Aéroport Oshogbo (108 km)Aéroport Benin City (109 km)Aéroport Ibadan (146 km)Aéroport Ilorin (160 km)Aéroport Bida (221 km)Aéroport Lagos Murtala Muhammed (231 km)

Vue aérienne de l'aéroport Akure

NOTAM de l'aéroport Akure

Les NOTAM sont fournis sans aucune garantie de leur actualité. Le pilote est le seul responsable de la vérification de sa validité avant de l'utiliser opérationnellement pour préparer un vol ou l'utiliser lors de sa navigation.

NOTAM Runway (du lundi 30 septembre 2019 à 06:00 au vendredi 4 octobre 2019 à 18:00)

B0123/19 NOTAMN
Q) DNKK/QMRHW/IV/NBO/A/000/999/0715N00518E005
A) DNAK B) 1909300600 C) 1910041800
E) RWY 03/21 REMARKING WIP.CTN ADZ
CREATED: 28 Sep 2019 05:32:00
SOURCE: DNMMYOYX

Sources des données